sensor_id;sensor_type;location;lat;lon;timestamp;pressure;altitude;pressure_sealevel;temperature;humidity
77240;BME280;66258;53.170;-2.240;2023-04-15T00:00:57;99906.88;;;12.96;100.00
77240;BME280;66258;53.170;-2.240;2023-04-15T00:03:24;99906.75;;;13.19;100.00
77240;BME280;66258;53.170;-2.240;2023-04-15T00:05:51;99914.59;;;13.29;100.00
77240;BME280;66258;53.170;-2.240;2023-04-15T00:08:17;99916.66;;;13.27;100.00
77240;BME280;66258;53.170;-2.240;2023-04-15T00:10:44;99921.56;;;13.38;100.00
77240;BME280;66258;53.170;-2.240;2023-04-15T00:13:11;99912.75;;;13.36;100.00
77240;BME280;66258;53.170;-2.240;2023-04-15T00:15:37;99919.13;;;13.43;100.00
77240;BME280;66258;53.170;-2.240;2023-04-15T00:18:06;99928.88;;;13.37;100.00
77240;BME280;66258;53.170;-2.240;2023-04-15T00:20:32;99933.47;;;13.37;100.00
77240;BME280;66258;53.170;-2.240;2023-04-15T00:23:01;99931.59;;;13.37;100.00
77240;BME280;66258;53.170;-2.240;2023-04-15T00:25:27;99931.22;;;13.40;100.00
77240;BME280;66258;53.170;-2.240;2023-04-15T00:27:54;99938.81;;;13.45;100.00
77240;BME280;66258;53.170;-2.240;2023-04-15T00:30:21;99937.63;;;13.33;100.00
77240;BME280;66258;53.170;-2.240;2023-04-15T00:32:47;99952.69;;;13.35;100.00
77240;BME280;66258;53.170;-2.240;2023-04-15T00:35:16;99944.56;;;13.35;100.00
77240;BME280;66258;53.170;-2.240;2023-04-15T00:37:42;99948.56;;;13.39;100.00
77240;BME280;66258;53.170;-2.240;2023-04-15T00:40:12;99947.63;;;13.47;100.00
77240;BME280;66258;53.170;-2.240;2023-04-15T00:42:39;99952.13;;;13.61;100.00
77240;BME280;66258;53.170;-2.240;2023-04-15T00:45:07;99964.81;;;13.75;100.00
77240;BME280;66258;53.170;-2.240;2023-04-15T00:47:35;99967.34;;;13.77;100.00
77240;BME280;66258;53.170;-2.240;2023-04-15T00:50:06;99972.75;;;13.70;100.00
77240;BME280;66258;53.170;-2.240;2023-04-15T00:52:34;99976.91;;;13.73;100.00
77240;BME280;66258;53.170;-2.240;2023-04-15T00:55:02;99979.84;;;13.71;100.00
77240;BME280;66258;53.170;-2.240;2023-04-15T00:57:31;99986.97;;;13.72;100.00
77240;BME280;66258;53.170;-2.240;2023-04-15T00:59:59;99987.78;;;13.73;100.00
77240;BME280;66258;53.170;-2.240;2023-04-15T01:02:26;99994.31;;;13.51;100.00
77240;BME280;66258;53.170;-2.240;2023-04-15T01:04:53;99996.78;;;13.31;100.00
77240;BME280;66258;53.170;-2.240;2023-04-15T01:07:20;100002.88;;;13.54;100.00
77240;BME280;66258;53.170;-2.240;2023-04-15T01:09:48;100001.47;;;13.58;100.00
77240;BME280;66258;53.170;-2.240;2023-04-15T01:12:16;100005.81;;;13.53;100.00
77240;BME280;66258;53.170;-2.240;2023-04-15T01:14:43;100009.72;;;13.65;100.00
77240;BME280;66258;53.170;-2.240;2023-04-15T01:17:10;100011.31;;;13.59;100.00
77240;BME280;66258;53.170;-2.240;2023-04-15T01:19:37;100015.66;;;13.54;100.00
77240;BME280;66258;53.170;-2.240;2023-04-15T01:22:03;100025.75;;;13.60;100.00
77240;BME280;66258;53.170;-2.240;2023-04-15T01:24:31;100021.41;;;13.44;100.00
77240;BME280;66258;53.170;-2.240;2023-04-15T01:26:59;100035.00;;;13.44;100.00
77240;BME280;66258;53.170;-2.240;2023-04-15T01:29:26;100035.97;;;13.36;100.00
77240;BME280;66258;53.170;-2.240;2023-04-15T01:31:54;100030.19;;;13.25;100.00
77240;BME280;66258;53.170;-2.240;2023-04-15T01:34:21;100042.84;;;13.18;100.00
77240;BME280;66258;53.170;-2.240;2023-04-15T01:36:48;100048.06;;;13.34;100.00
77240;BME280;66258;53.170;-2.240;2023-04-15T01:39:14;100053.97;;;13.37;100.00
77240;BME280;66258;53.170;-2.240;2023-04-15T01:41:41;100046.78;;;13.30;100.00
77240;BME280;66258;53.170;-2.240;2023-04-15T01:44:09;100053.53;;;13.19;100.00
77240;BME280;66258;53.170;-2.240;2023-04-15T01:46:36;100049.00;;;13.12;100.00
77240;BME280;66258;53.170;-2.240;2023-04-15T01:49:03;100049.66;;;13.14;100.00
77240;BME280;66258;53.170;-2.240;2023-04-15T01:51:30;100049.78;;;13.05;100.00
77240;BME280;66258;53.170;-2.240;2023-04-15T01:53:56;100050.25;;;12.94;100.00
77240;BME280;66258;53.170;-2.240;2023-04-15T01:56:23;100048.38;;;12.95;100.00
77240;BME280;66258;53.170;-2.240;2023-04-15T01:58:50;100048.47;;;12.87;100.00
77240;BME280;66258;53.170;-2.240;2023-04-15T02:01:18;100050.53;;;12.99;100.00
77240;BME280;66258;53.170;-2.240;2023-04-15T02:03:45;100050.34;;;12.86;100.00
77240;BME280;66258;53.170;-2.240;2023-04-15T02:06:12;100059.53;;;12.85;100.00
77240;BME280;66258;53.170;-2.240;2023-04-15T02:08:38;100060.53;;;12.99;100.00
77240;BME280;66258;53.170;-2.240;2023-04-15T02:11:05;100069.56;;;12.85;100.00
77240;BME280;66258;53.170;-2.240;2023-04-15T02:13:32;100067.75;;;12.77;100.00
77240;BME280;66258;53.170;-2.240;2023-04-15T02:15:58;100073.50;;;12.82;100.00
77240;BME280;66258;53.170;-2.240;2023-04-15T02:18:31;100078.91;;;12.97;100.00
77240;BME280;66258;53.170;-2.240;2023-04-15T02:20:57;100071.63;;;12.83;100.00
77240;BME280;66258;53.170;-2.240;2023-04-15T02:23:24;100081.53;;;12.76;100.00
77240;BME280;66258;53.170;-2.240;2023-04-15T02:25:51;100077.22;;;12.81;100.00
77240;BME280;66258;53.170;-2.240;2023-04-15T02:28:19;100081.16;;;12.93;100.00
77240;BME280;66258;53.170;-2.240;2023-04-15T02:30:47;100090.44;;;12.99;100.00
77240;BME280;66258;53.170;-2.240;2023-04-15T02:33:13;100091.47;;;12.98;100.00
77240;BME280;66258;53.170;-2.240;2023-04-15T02:35:43;100100.94;;;13.17;100.00
77240;BME280;66258;53.170;-2.240;2023-04-15T02:38:10;100098.31;;;13.08;100.00
77240;BME280;66258;53.170;-2.240;2023-04-15T02:40:37;100102.13;;;13.14;100.00
77240;BME280;66258;53.170;-2.240;2023-04-15T02:43:03;100099.97;;;13.09;100.00
77240;BME280;66258;53.170;-2.240;2023-04-15T02:45:30;100114.34;;;13.03;100.00
77240;BME280;66258;53.170;-2.240;2023-04-15T02:47:56;100113.13;;;13.06;100.00
77240;BME280;66258;53.170;-2.240;2023-04-15T02:50:23;100116.94;;;12.97;100.00
77240;BME280;66258;53.170;-2.240;2023-04-15T02:52:51;100123.59;;;12.94;100.00
77240;BME280;66258;53.170;-2.240;2023-04-15T02:55:18;100129.50;;;12.83;100.00
77240;BME280;66258;53.170;-2.240;2023-04-15T02:57:46;100125.41;;;12.87;100.00
77240;BME280;66258;53.170;-2.240;2023-04-15T03:00:13;100126.13;;;12.81;100.00
77240;BME280;66258;53.170;-2.240;2023-04-15T03:02:40;100125.19;;;12.74;100.00
77240;BME280;66258;53.170;-2.240;2023-04-15T03:05:10;100131.16;;;12.69;100.00
77240;BME280;66258;53.170;-2.240;2023-04-15T03:07:38;100141.19;;;12.69;100.00
77240;BME280;66258;53.170;-2.240;2023-04-15T03:10:07;100141.75;;;12.64;100.00
77240;BME280;66258;53.170;-2.240;2023-04-15T03:12:34;100147.06;;;12.58;100.00
77240;BME280;66258;53.170;-2.240;2023-04-15T03:15:01;100155.34;;;12.64;100.00
77240;BME280;66258;53.170;-2.240;2023-04-15T03:17:27;100156.19;;;12.65;100.00
77240;BME280;66258;53.170;-2.240;2023-04-15T03:19:54;100166.19;;;12.64;100.00
77240;BME280;66258;53.170;-2.240;2023-04-15T03:22:21;100166.00;;;12.66;100.00
77240;BME280;66258;53.170;-2.240;2023-04-15T03:24:47;100166.78;;;12.52;100.00
77240;BME280;66258;53.170;-2.240;2023-04-15T03:27:15;100172.97;;;12.46;100.00
77240;BME280;66258;53.170;-2.240;2023-04-15T03:29:42;100170.31;;;12.37;100.00
77240;BME280;66258;53.170;-2.240;2023-04-15T03:32:08;100180.03;;;12.32;100.00
77240;BME280;66258;53.170;-2.240;2023-04-15T03:34:36;100183.53;;;12.41;100.00
77240;BME280;66258;53.170;-2.240;2023-04-15T03:37:04;100185.44;;;12.32;100.00
77240;BME280;66258;53.170;-2.240;2023-04-15T03:39:30;100177.78;;;12.13;100.00
77240;BME280;66258;53.170;-2.240;2023-04-15T03:41:57;100170.00;;;12.10;100.00
77240;BME280;66258;53.170;-2.240;2023-04-15T03:44:26;100179.09;;;11.94;100.00
77240;BME280;66258;53.170;-2.240;2023-04-15T03:46:53;100179.03;;;11.79;100.00
77240;BME280;66258;53.170;-2.240;2023-04-15T03:49:19;100175.81;;;11.67;100.00
77240;BME280;66258;53.170;-2.240;2023-04-15T03:51:46;100187.56;;;11.60;100.00
77240;BME280;66258;53.170;-2.240;2023-04-15T03:54:13;100186.72;;;11.59;100.00
77240;BME280;66258;53.170;-2.240;2023-04-15T03:56:39;100192.41;;;11.73;100.00
77240;BME280;66258;53.170;-2.240;2023-04-15T03:59:06;100198.69;;;11.73;100.00
77240;BME280;66258;53.170;-2.240;2023-04-15T04:01:34;100195.66;;;11.68;100.00
77240;BME280;66258;53.170;-2.240;2023-04-15T04:04:01;100192.31;;;11.58;100.00
77240;BME280;66258;53.170;-2.240;2023-04-15T04:06:28;100190.88;;;11.39;100.00
77240;BME280;66258;53.170;-2.240;2023-04-15T04:08:54;100187.66;;;11.27;100.00
77240;BME280;66258;53.170;-2.240;2023-04-15T04:11:21;100190.91;;;11.23;100.00
77240;BME280;66258;53.170;-2.240;2023-04-15T04:13:48;100194.66;;;11.14;100.00
77240;BME280;66258;53.170;-2.240;2023-04-15T04:16:14;100213.63;;;11.14;100.00
77240;BME280;66258;53.170;-2.240;2023-04-15T04:18:43;100217.97;;;11.31;100.00
77240;BME280;66258;53.170;-2.240;2023-04-15T04:21:10;100219.69;;;11.24;100.00
77240;BME280;66258;53.170;-2.240;2023-04-15T04:23:36;100226.50;;;11.12;100.00
77240;BME280;66258;53.170;-2.240;2023-04-15T04:26:03;100227.19;;;11.06;100.00
77240;BME280;66258;53.170;-2.240;2023-04-15T04:28:30;100236.66;;;11.01;100.00
77240;BME280;66258;53.170;-2.240;2023-04-15T04:30:57;100240.41;;;11.00;100.00
77240;BME280;66258;53.170;-2.240;2023-04-15T04:33:23;100238.53;;;11.09;100.00
77240;BME280;66258;53.170;-2.240;2023-04-15T04:35:51;100250.88;;;11.03;100.00
77240;BME280;66258;53.170;-2.240;2023-04-15T04:38:18;100257.28;;;11.27;100.00
77240;BME280;66258;53.170;-2.240;2023-04-15T04:40:45;100254.41;;;11.28;100.00
77240;BME280;66258;53.170;-2.240;2023-04-15T04:43:11;100261.84;;;11.34;100.00
77240;BME280;66258;53.170;-2.240;2023-04-15T04:45:38;100263.06;;;11.24;100.00
77240;BME280;66258;53.170;-2.240;2023-04-15T04:48:05;100269.00;;;11.11;100.00
77240;BME280;66258;53.170;-2.240;2023-04-15T04:50:32;100266.13;;;11.21;100.00
77240;BME280;66258;53.170;-2.240;2023-04-15T04:53:00;100266.09;;;11.37;100.00
77240;BME280;66258;53.170;-2.240;2023-04-15T04:55:27;100273.50;;;11.43;100.00
77240;BME280;66258;53.170;-2.240;2023-04-15T04:57:53;100276.72;;;11.55;100.00
77240;BME280;66258;53.170;-2.240;2023-04-15T05:00:20;100290.09;;;11.56;100.00
77240;BME280;66258;53.170;-2.240;2023-04-15T05:02:47;100297.91;;;11.51;100.00
77240;BME280;66258;53.170;-2.240;2023-04-15T05:05:14;100288.63;;;11.29;100.00
77240;BME280;66258;53.170;-2.240;2023-04-15T05:07:43;100297.25;;;11.25;100.00
77240;BME280;66258;53.170;-2.240;2023-04-15T05:10:11;100291.16;;;11.23;100.00
77240;BME280;66258;53.170;-2.240;2023-04-15T05:12:37;100290.16;;;11.08;100.00
77240;BME280;66258;53.170;-2.240;2023-04-15T05:15:07;100296.94;;;10.87;100.00
77240;BME280;66258;53.170;-2.240;2023-04-15T05:17:34;100303.38;;;11.02;100.00
77240;BME280;66258;53.170;-2.240;2023-04-15T05:20:01;100311.88;;;10.99;100.00
77240;BME280;66258;53.170;-2.240;2023-04-15T05:22:28;100321.69;;;10.92;100.00
77240;BME280;66258;53.170;-2.240;2023-04-15T05:24:54;100320.66;;;10.93;100.00
77240;BME280;66258;53.170;-2.240;2023-04-15T05:27:22;100330.47;;;10.94;100.00
77240;BME280;66258;53.170;-2.240;2023-04-15T05:29:49;100331.81;;;10.82;100.00
77240;BME280;66258;53.170;-2.240;2023-04-15T05:32:16;100340.59;;;10.68;100.00
77240;BME280;66258;53.170;-2.240;2023-04-15T05:34:42;100342.28;;;10.61;100.00
77240;BME280;66258;53.170;-2.240;2023-04-15T05:37:09;100350.41;;;10.69;100.00
77240;BME280;66258;53.170;-2.240;2023-04-15T05:39:37;100357.88;;;10.83;100.00
77240;BME280;66258;53.170;-2.240;2023-04-15T05:42:03;100359.25;;;10.87;100.00
77240;BME280;66258;53.170;-2.240;2023-04-15T05:44:32;100357.88;;;10.75;100.00
77240;BME280;66258;53.170;-2.240;2023-04-15T05:46:58;100367.19;;;10.73;100.00
77240;BME280;66258;53.170;-2.240;2023-04-15T05:49:25;100366.66;;;10.69;100.00
77240;BME280;66258;53.170;-2.240;2023-04-15T05:51:51;100373.66;;;10.96;100.00
77240;BME280;66258;53.170;-2.240;2023-04-15T05:54:18;100379.59;;;10.99;100.00
77240;BME280;66258;53.170;-2.240;2023-04-15T05:56:45;100385.69;;;11.18;100.00
77240;BME280;66258;53.170;-2.240;2023-04-15T05:59:12;100395.84;;;11.08;100.00
77240;BME280;66258;53.170;-2.240;2023-04-15T06:01:40;100401.78;;;11.19;100.00
77240;BME280;66258;53.170;-2.240;2023-04-15T06:04:07;100396.84;;;11.23;100.00
77240;BME280;66258;53.170;-2.240;2023-04-15T06:06:34;100403.31;;;11.30;100.00
77240;BME280;66258;53.170;-2.240;2023-04-15T06:09:00;100409.25;;;11.17;100.00
77240;BME280;66258;53.170;-2.240;2023-04-15T06:11:28;100420.41;;;11.30;100.00
77240;BME280;66258;53.170;-2.240;2023-04-15T06:13:54;100423.13;;;11.30;100.00
77240;BME280;66258;53.170;-2.240;2023-04-15T06:16:21;100433.81;;;11.56;100.00
77240;BME280;66258;53.170;-2.240;2023-04-15T06:18:49;100441.25;;;11.38;100.00
77240;BME280;66258;53.170;-2.240;2023-04-15T06:21:16;100449.72;;;11.43;100.00
77240;BME280;66258;53.170;-2.240;2023-04-15T06:23:43;100455.47;;;11.32;100.00
77240;BME280;66258;53.170;-2.240;2023-04-15T06:26:10;100455.13;;;11.43;100.00
77240;BME280;66258;53.170;-2.240;2023-04-15T06:28:36;100458.19;;;11.48;100.00
77240;BME280;66258;53.170;-2.240;2023-04-15T06:31:03;100463.63;;;11.48;100.00
77240;BME280;66258;53.170;-2.240;2023-04-15T06:33:30;100472.78;;;11.88;100.00
77240;BME280;66258;53.170;-2.240;2023-04-15T06:35:58;100490.38;;;12.16;100.00
77240;BME280;66258;53.170;-2.240;2023-04-15T06:38:25;100491.75;;;12.12;100.00
77240;BME280;66258;53.170;-2.240;2023-04-15T06:40:52;100495.31;;;11.72;100.00
77240;BME280;66258;53.170;-2.240;2023-04-15T06:43:18;100499.03;;;11.71;100.00
77240;BME280;66258;53.170;-2.240;2023-04-15T06:45:45;100508.72;;;12.14;100.00
77240;BME280;66258;53.170;-2.240;2023-04-15T06:48:11;100506.03;;;12.61;100.00
77240;BME280;66258;53.170;-2.240;2023-04-15T06:50:38;100510.38;;;12.87;100.00
77240;BME280;66258;53.170;-2.240;2023-04-15T06:53:07;100508.66;;;13.25;100.00
77240;BME280;66258;53.170;-2.240;2023-04-15T06:55:33;100506.50;;;13.43;100.00
77240;BME280;66258;53.170;-2.240;2023-04-15T06:58:00;100515.59;;;13.73;100.00
77240;BME280;66258;53.170;-2.240;2023-04-15T07:00:27;100537.50;;;14.17;100.00
77240;BME280;66258;53.170;-2.240;2023-04-15T07:02:54;100537.31;;;14.41;100.00
77240;BME280;66258;53.170;-2.240;2023-04-15T07:05:20;100545.00;;;14.97;100.00
77240;BME280;66258;53.170;-2.240;2023-04-15T07:07:47;100553.91;;;15.20;100.00
77240;BME280;66258;53.170;-2.240;2023-04-15T07:10:15;100552.00;;;15.35;100.00
77240;BME280;66258;53.170;-2.240;2023-04-15T07:12:42;100547.47;;;14.77;100.00
77240;BME280;66258;53.170;-2.240;2023-04-15T07:15:10;100550.66;;;14.66;100.00
77240;BME280;66258;53.170;-2.240;2023-04-15T07:17:36;100552.81;;;14.56;100.00
77240;BME280;66258;53.170;-2.240;2023-04-15T07:20:03;100550.19;;;14.77;100.00
77240;BME280;66258;53.170;-2.240;2023-04-15T07:22:30;100558.81;;;15.10;100.00
77240;BME280;66258;53.170;-2.240;2023-04-15T07:24:57;100567.66;;;15.48;100.00
77240;BME280;66258;53.170;-2.240;2023-04-15T07:27:25;100566.81;;;15.47;100.00
77240;BME280;66258;53.170;-2.240;2023-04-15T07:29:52;100572.06;;;15.64;100.00
77240;BME280;66258;53.170;-2.240;2023-04-15T07:32:19;100576.94;;;16.32;100.00
77240;BME280;66258;53.170;-2.240;2023-04-15T07:34:45;100589.13;;;17.27;100.00
77240;BME280;66258;53.170;-2.240;2023-04-15T07:37:12;100601.41;;;18.05;100.00
77240;BME280;66258;53.170;-2.240;2023-04-15T07:39:39;100604.59;;;18.41;97.66
77240;BME280;66258;53.170;-2.240;2023-04-15T07:42:05;100620.59;;;18.58;92.67
77240;BME280;66258;53.170;-2.240;2023-04-15T07:44:33;100619.13;;;18.15;87.77
77240;BME280;66258;53.170;-2.240;2023-04-15T07:47:01;100620.63;;;17.57;89.87
77240;BME280;66258;53.170;-2.240;2023-04-15T07:49:28;100627.31;;;17.41;93.50
77240;BME280;66258;53.170;-2.240;2023-04-15T07:51:55;100634.66;;;17.89;95.95
77240;BME280;66258;53.170;-2.240;2023-04-15T07:54:24;100629.47;;;18.46;96.60
77240;BME280;66258;53.170;-2.240;2023-04-15T07:56:50;100653.63;;;19.35;86.42
77240;BME280;66258;53.170;-2.240;2023-04-15T07:59:17;100647.56;;;19.13;84.88
77240;BME280;66258;53.170;-2.240;2023-04-15T08:01:45;100655.91;;;19.58;82.89
77240;BME280;66258;53.170;-2.240;2023-04-15T08:04:12;100662.34;;;19.83;79.93
77240;BME280;66258;53.170;-2.240;2023-04-15T08:06:39;100658.25;;;19.54;74.37
77240;BME280;66258;53.170;-2.240;2023-04-15T08:09:06;100662.91;;;19.41;74.36
77240;BME280;66258;53.170;-2.240;2023-04-15T08:11:34;100663.38;;;19.31;74.39
77240;BME280;66258;53.170;-2.240;2023-04-15T08:14:01;100663.75;;;19.48;77.69
77240;BME280;66258;53.170;-2.240;2023-04-15T08:16:28;100672.19;;;19.98;74.06
77240;BME280;66258;53.170;-2.240;2023-04-15T08:18:56;100666.34;;;19.23;71.98
77240;BME280;66258;53.170;-2.240;2023-04-15T08:21:23;100674.31;;;19.44;74.33
77240;BME280;66258;53.170;-2.240;2023-04-15T08:23:51;100680.22;;;19.48;75.65
77240;BME280;66258;53.170;-2.240;2023-04-15T08:26:19;100688.69;;;19.98;78.75
77240;BME280;66258;53.170;-2.240;2023-04-15T08:28:45;100696.25;;;20.09;69.14
77240;BME280;66258;53.170;-2.240;2023-04-15T08:31:14;100696.16;;;19.90;71.02
77240;BME280;66258;53.170;-2.240;2023-04-15T08:33:41;100697.91;;;19.72;69.74
77240;BME280;66258;53.170;-2.240;2023-04-15T08:36:09;100695.94;;;19.92;67.27
77240;BME280;66258;53.170;-2.240;2023-04-15T08:38:36;100708.31;;;20.08;64.60
77240;BME280;66258;53.170;-2.240;2023-04-15T08:41:08;100715.81;;;19.87;65.75
77240;BME280;66258;53.170;-2.240;2023-04-15T08:43:42;100709.56;;;20.12;73.04
77240;BME280;66258;53.170;-2.240;2023-04-15T08:46:12;100720.97;;;21.03;75.15
77240;BME280;66258;53.170;-2.240;2023-04-15T08:48:39;100729.91;;;21.48;71.90
77240;BME280;66258;53.170;-2.240;2023-04-15T08:51:05;100730.84;;;21.79;60.22
77240;BME280;66258;53.170;-2.240;2023-04-15T08:53:34;100730.22;;;21.40;61.78
77240;BME280;66258;53.170;-2.240;2023-04-15T08:56:03;100735.72;;;21.77;66.77
77240;BME280;66258;53.170;-2.240;2023-04-15T08:58:31;100743.19;;;22.24;56.49
77240;BME280;66258;53.170;-2.240;2023-04-15T09:00:57;100745.34;;;21.86;57.72
77240;BME280;66258;53.170;-2.240;2023-04-15T09:03:25;100744.44;;;21.55;59.99
77240;BME280;66258;53.170;-2.240;2023-04-15T09:05:53;100748.91;;;22.41;62.78
77240;BME280;66258;53.170;-2.240;2023-04-15T09:08:20;100759.44;;;22.62;59.57
77240;BME280;66258;53.170;-2.240;2023-04-15T09:10:48;100754.94;;;22.80;57.30
77240;BME280;66258;53.170;-2.240;2023-04-15T09:13:18;100758.34;;;22.63;58.00
77240;BME280;66258;53.170;-2.240;2023-04-15T09:15:45;100757.41;;;22.70;58.46
77240;BME280;66258;53.170;-2.240;2023-04-15T09:18:13;100765.06;;;23.09;58.69
77240;BME280;66258;53.170;-2.240;2023-04-15T09:20:54;100769.47;;;22.87;57.10
77240;BME280;66258;53.170;-2.240;2023-04-15T09:23:21;100773.09;;;22.99;56.32
77240;BME280;66258;53.170;-2.240;2023-04-15T09:25:49;100773.69;;;22.29;57.06
77240;BME280;66258;53.170;-2.240;2023-04-15T09:28:23;100768.19;;;21.32;57.87
77240;BME280;66258;53.170;-2.240;2023-04-15T09:30:51;100766.47;;;20.81;59.97
77240;BME280;66258;53.170;-2.240;2023-04-15T09:33:18;100772.16;;;20.10;63.79
77240;BME280;66258;53.170;-2.240;2023-04-15T09:35:56;100772.28;;;20.21;65.24
77240;BME280;66258;53.170;-2.240;2023-04-15T09:38:22;100781.22;;;21.43;66.52
77240;BME280;66258;53.170;-2.240;2023-04-15T09:40:50;100785.44;;;22.85;66.94
77240;BME280;66258;53.170;-2.240;2023-04-15T09:43:17;100801.22;;;24.13;59.44
77240;BME280;66258;53.170;-2.240;2023-04-15T09:45:47;100796.94;;;24.45;54.90
77240;BME280;66258;53.170;-2.240;2023-04-15T09:48:16;100804.09;;;24.18;53.91
77240;BME280;66258;53.170;-2.240;2023-04-15T09:50:43;100800.03;;;24.09;50.92
77240;BME280;66258;53.170;-2.240;2023-04-15T09:53:10;100802.13;;;23.90;53.59
77240;BME280;66258;53.170;-2.240;2023-04-15T09:55:38;100798.19;;;23.62;51.92
77240;BME280;66258;53.170;-2.240;2023-04-15T09:58:16;100794.59;;;22.37;55.42
77240;BME280;66258;53.170;-2.240;2023-04-15T10:00:44;100791.94;;;22.12;54.98
77240;BME280;66258;53.170;-2.240;2023-04-15T10:03:14;100805.47;;;21.34;55.86
77240;BME280;66258;53.170;-2.240;2023-04-15T10:05:46;100800.47;;;20.93;60.48
77240;BME280;66258;53.170;-2.240;2023-04-15T10:08:14;100796.25;;;20.90;62.54
77240;BME280;66258;53.170;-2.240;2023-04-15T10:10:41;100808.53;;;21.44;61.43
77240;BME280;66258;53.170;-2.240;2023-04-15T10:13:10;100803.94;;;22.36;63.53
77240;BME280;66258;53.170;-2.240;2023-04-15T10:15:41;100818.59;;;23.85;63.04
77240;BME280;66258;53.170;-2.240;2023-04-15T10:18:10;100830.53;;;24.37;56.58
77240;BME280;66258;53.170;-2.240;2023-04-15T10:20:40;100839.75;;;24.83;52.98
77240;BME280;66258;53.170;-2.240;2023-04-15T10:23:08;100834.31;;;24.88;50.91
77240;BME280;66258;53.170;-2.240;2023-04-15T10:25:37;100847.97;;;25.40;50.28
77240;BME280;66258;53.170;-2.240;2023-04-15T10:28:05;100851.44;;;25.80;47.89
77240;BME280;66258;53.170;-2.240;2023-04-15T10:30:35;100845.88;;;26.35;48.16
77240;BME280;66258;53.170;-2.240;2023-04-15T10:33:02;100851.44;;;25.80;41.76
77240;BME280;66258;53.170;-2.240;2023-04-15T10:35:30;100838.03;;;24.02;46.61
77240;BME280;66258;53.170;-2.240;2023-04-15T10:37:57;100829.84;;;23.37;49.30
77240;BME280;66258;53.170;-2.240;2023-04-15T10:40:26;100836.88;;;22.31;49.44
77240;BME280;66258;53.170;-2.240;2023-04-15T10:42:54;100835.47;;;21.42;52.31
77240;BME280;66258;53.170;-2.240;2023-04-15T10:45:21;100834.13;;;20.95;58.13
77240;BME280;66258;53.170;-2.240;2023-04-15T10:47:54;100836.25;;;21.92;56.12
77240;BME280;66258;53.170;-2.240;2023-04-15T10:50:21;100841.56;;;22.31;59.77
77240;BME280;66258;53.170;-2.240;2023-04-15T10:52:50;100855.13;;;23.75;55.24
77240;BME280;66258;53.170;-2.240;2023-04-15T10:55:19;100850.41;;;22.99;53.63
77240;BME280;66258;53.170;-2.240;2023-04-15T10:57:51;100849.41;;;22.82;54.33
77240;BME280;66258;53.170;-2.240;2023-04-15T11:00:24;100857.78;;;23.17;52.10
77240;BME280;66258;53.170;-2.240;2023-04-15T11:02:54;100857.28;;;23.08;53.14
77240;BME280;66258;53.170;-2.240;2023-04-15T11:05:47;100860.00;;;22.48;54.05
77240;BME280;66258;53.170;-2.240;2023-04-15T11:08:10;100860.44;;;22.82;56.41
77240;BME280;66258;53.170;-2.240;2023-04-15T11:10:53;100871.34;;;23.83;55.85
77240;BME280;66258;53.170;-2.240;2023-04-15T11:13:23;100876.25;;;24.40;53.56
77240;BME280;66258;53.170;-2.240;2023-04-15T11:15:55;100873.22;;;24.41;48.69
77240;BME280;66258;53.170;-2.240;2023-04-15T11:18:25;100874.13;;;24.07;49.73
77240;BME280;66258;53.170;-2.240;2023-04-15T11:20:54;100869.06;;;23.57;46.37
77240;BME280;66258;53.170;-2.240;2023-04-15T11:23:30;100873.41;;;22.81;49.75
77240;BME280;66258;53.170;-2.240;2023-04-15T11:25:58;100862.59;;;21.64;52.15
77240;BME280;66258;53.170;-2.240;2023-04-15T11:28:27;100863.22;;;21.41;53.35
77240;BME280;66258;53.170;-2.240;2023-04-15T11:30:54;100856.09;;;21.58;52.69
77240;BME280;66258;53.170;-2.240;2023-04-15T11:33:21;100864.19;;;21.78;52.26
77240;BME280;66258;53.170;-2.240;2023-04-15T11:35:51;100857.69;;;21.90;51.16
77240;BME280;66258;53.170;-2.240;2023-04-15T11:38:18;100856.38;;;21.25;51.83
77240;BME280;66258;53.170;-2.240;2023-04-15T11:40:45;100855.75;;;21.48;51.84
77240;BME280;66258;53.170;-2.240;2023-04-15T11:43:14;100853.44;;;21.20;51.14
77240;BME280;66258;53.170;-2.240;2023-04-15T11:45:49;100859.00;;;21.63;51.32
77240;BME280;66258;53.170;-2.240;2023-04-15T11:48:17;100869.06;;;22.01;52.20
77240;BME280;66258;53.170;-2.240;2023-04-15T11:50:45;100871.69;;;21.89;51.40
77240;BME280;66258;53.170;-2.240;2023-04-15T11:53:13;100863.13;;;21.97;52.52
77240;BME280;66258;53.170;-2.240;2023-04-15T11:55:41;100859.97;;;21.93;50.76
77240;BME280;66258;53.170;-2.240;2023-04-15T11:58:09;100867.84;;;21.90;50.86
77240;BME280;66258;53.170;-2.240;2023-04-15T12:00:37;100876.06;;;22.21;49.29
77240;BME280;66258;53.170;-2.240;2023-04-15T12:03:17;100866.94;;;22.21;48.05
77240;BME280;66258;53.170;-2.240;2023-04-15T12:06:08;100883.81;;;22.06;47.88
77240;BME280;66258;53.170;-2.240;2023-04-15T12:11:44;100893.88;;;22.01;48.75
77240;BME280;66258;53.170;-2.240;2023-04-15T12:14:17;100893.38;;;21.60;48.74
77240;BME280;66258;53.170;-2.240;2023-04-15T12:16:45;100896.72;;;21.06;51.31
77240;BME280;66258;53.170;-2.240;2023-04-15T12:19:21;100902.31;;;21.24;52.31
77240;BME280;66258;53.170;-2.240;2023-04-15T12:21:49;100894.91;;;20.87;52.96
77240;BME280;66258;53.170;-2.240;2023-04-15T12:24:19;100902.41;;;21.11;53.91
77240;BME280;66258;53.170;-2.240;2023-04-15T12:26:48;100904.16;;;21.37;53.57
77240;BME280;66258;53.170;-2.240;2023-04-15T12:29:15;100910.63;;;21.74;52.75
77240;BME280;66258;53.170;-2.240;2023-04-15T12:31:47;100913.19;;;22.01;51.37
77240;BME280;66258;53.170;-2.240;2023-04-15T12:34:14;100921.97;;;22.09;51.39
77240;BME280;66258;53.170;-2.240;2023-04-15T12:36:41;100920.16;;;22.21;51.20
77240;BME280;66258;53.170;-2.240;2023-04-15T12:39:08;100912.56;;;22.53;48.84
77240;BME280;66258;53.170;-2.240;2023-04-15T12:41:36;100919.72;;;22.00;51.65